Hunter M — WDE8140 — position and weather

sailwx.info

Track history (hours):
 
Tides and Currents Weather Stations Pressure Air Temp Water Temp Dewpoint Dewpoint Depression Visibility Wind Speed Wind Dir Waves Ship Positions

Hunter M

Owner: G & H Towing Company, Galveston, TX. More information available from US FCC via Universal Licensing System and Coast Guard Vessel Documentation Center.

Last reported at 2017-Dec-17 03:30 UTC. Time now 2017-Dec-17 03:57 UTC.
Position N 29°37' W 095°00'.

Length 30 m; draft 6.2 m.

Type: Tug. MMSI: 367402050.

Date/timePositionNaut miles runAvg speedWind from/ knotsBaromVisibWave heightAir tempDewpointWater temp
2017-Dec-17 03:30N 29°37' W 095°00'3 5.6
2017-Dec-17 03:00N 29°39' W 094°58'3 5.1
2017-Dec-17 02:30N 29°41' W 094°59'1 1.1
2017-Dec-17 02:00N 29°41' W 094°60'2 3.3
2017-Dec-17 01:28N 29°42' W 095°01'0 0.0
2017-Dec-16 23:32N 29°42' W 095°01'0 2.6
2017-Dec-16 23:30N 29°42' W 095°01'4 0.7
2017-Dec-16 16:56N 29°46' W 095°04'3 6.3
2017-Dec-16 16:24N 29°44' W 095°01'0 0.0
2017-Dec-16 16:00N 29°44' W 095°01'0 0.0
2017-Dec-16 15:28N 29°44' W 095°01'1 1.5
2017-Dec-16 14:43N 29°43' W 095°01'0 1.4
2017-Dec-16 14:26N 29°42' W 095°01'0 0.0
2017-Dec-16 14:00N 29°42' W 095°01'2 4.6
2017-Dec-16 13:30N 29°41' W 094°59'1 2.2
2017-Dec-16 13:00N 29°41' W 095°00'0 0.1
2017-Dec-16 12:25N 29°41' W 095°00'0 0.0
2017-Dec-16 12:01N 29°41' W 095°00'0 0.4
2017-Dec-16 11:29N 29°41' W 094°60'0 0.7
2017-Dec-16 11:00N 29°41' W 094°60'1 2.3
2017-Dec-16 10:30N 29°40' W 094°59'1 2.0
2017-Dec-16 09:58N 29°41' W 094°60'0 0.0
2017-Dec-16 09:28N 29°41' W 094°60'0 0.0
2017-Dec-16 08:58N 29°41' W 094°60'0 0.0
2017-Dec-16 08:28N 29°41' W 094°60'0 0.0
2017-Dec-16 07:55N 29°41' W 094°60'0 0.0
2017-Dec-16 07:28N 29°41' W 094°60'0 0.0
2017-Dec-16 06:58N 29°41' W 094°60'0 0.0
2017-Dec-16 06:28N 29°41' W 094°60'0 0.0
2017-Dec-16 06:00N 29°41' W 094°60'4 7.8
2017-Dec-16 05:30N 29°37' W 094°58'4 7.1
2017-Dec-16 05:01N 29°37' W 095°02'0 0.0
2017-Dec-16 04:31N 29°37' W 095°02'1 1.7
2017-Dec-16 04:01N 29°37' W 095°01'0 0.0
2017-Dec-16 03:30N 29°37' W 095°01'0 0.0
2017-Dec-16 03:00N 29°37' W 095°01'0 0.0
2017-Dec-16 02:30N 29°37' W 095°01'1 1.4
2017-Dec-16 02:00N 29°37' W 095°01'1 2.2
2017-Dec-16 01:30N 29°37' W 095°00'1 2.8
2017-Dec-16 01:00N 29°37' W 094°59'4 8.1
2017-Dec-16 00:30N 29°41' W 094°59'1 2.8
2017-Dec-16 00:01N 29°41' W 095°01'1 1.5
2017-Dec-15 23:30N 29°41' W 094°60'2 4.1
2017-Dec-15 23:00N 29°39' W 094°58'2 2.8
2017-Dec-15 22:19N 29°41' W 094°59'0 0.3
2017-Dec-15 22:00N 29°41' W 094°59'1 1.0
2017-Dec-15 21:29N 29°41' W 095°00'1 1.0
2017-Dec-15 21:00N 29°41' W 094°59'0 0.0
2017-Dec-15 20:30N 29°41' W 094°59'0 0.0
2017-Dec-15 20:00N 29°41' W 094°59'0 0.0
2017-Dec-15 19:30N 29°41' W 094°59'3 2.3
2017-Dec-15 18:08N 29°44' W 095°01'1 2.5
2017-Dec-15 17:55N 29°43' W 095°01'2 4.7
2017-Dec-15 17:30N 29°42' W 094°60'1 2.3
2017-Dec-15 17:01N 29°41' W 094°59'2 4.2
2017-Dec-15 16:26N 29°42' W 095°01'0 0.0
2017-Dec-15 15:56N 29°42' W 095°01'0 0.0
2017-Dec-15 15:26N 29°42' W 095°01'0 0.0
2017-Dec-15 14:44N 29°42' W 095°01'0 0.0
2017-Dec-15 14:30N 29°42' W 095°01'2 3.7
2017-Dec-15 13:58N 29°41' W 094°59'0 0.0
2017-Dec-15 13:28N 29°41' W 094°59'0 0.0
2017-Dec-15 12:58N 29°41' W 094°59'0 0.0
2017-Dec-15 12:28N 29°41' W 094°59'0 0.0
2017-Dec-15 11:58N 29°41' W 094°59'0 0.0
2017-Dec-15 11:28N 29°41' W 094°59'0 0.0
2017-Dec-15 10:58N 29°41' W 094°59'0 0.0
2017-Dec-15 10:28N 29°41' W 094°59'0 0.0
2017-Dec-15 09:58N 29°41' W 094°59'0 0.0
2017-Dec-15 09:25N 29°41' W 094°59'0 0.0
2017-Dec-15 08:49N 29°41' W 094°59'0 0.0
2017-Dec-15 08:25N 29°41' W 094°59'0 0.0
2017-Dec-15 06:40N 29°41' W 094°59'0 0.0
2017-Dec-15 06:19N 29°41' W 094°59'0 0.6
2017-Dec-15 06:01N 29°41' W 094°59'1 1.8
2017-Dec-15 05:31N 29°41' W 095°00'2 3.6
2017-Dec-15 05:00N 29°40' W 094°58'3 6.6
2017-Dec-15 04:30N 29°37' W 094°60'0 0.9
2017-Dec-15 04:00N 29°37' W 095°00'0 0.0
2017-Dec-15 02:24N 29°37' W 095°00'0 0.0
2017-Dec-15 01:00N 29°37' W 095°00'0 0.0
2017-Dec-15 00:30N 29°37' W 095°00'4 0.7
2017-Dec-14 18:29N 29°41' W 094°59'1 1.1
2017-Dec-14 18:00N 29°41' W 094°59'0 0.8
2017-Dec-14 17:30N 29°41' W 094°59'2 3.5
2017-Dec-14 16:56N 29°42' W 095°01'0 0.0
2017-Dec-14 15:50N 29°42' W 095°01'1 1.3
2017-Dec-14 15:01N 29°42' W 094°60'3 5.5
2017-Dec-14 14:24N 29°44' W 095°03'3 5.8
2017-Dec-14 13:57N 29°46' W 095°05'2 1.5
2017-Dec-14 12:42N 29°44' W 095°07'0 0.0
2017-Dec-14 05:42N 29°45' W 095°07'0 0.0
2017-Dec-14 05:12N 29°45' W 095°07'0 0.0
2017-Dec-14 05:00N 29°45' W 095°07'0 0.0
2017-Dec-14 03:27N 29°44' W 095°07'0 0.1
2017-Dec-14 02:09N 29°45' W 095°06'0 0.9
2017-Dec-14 01:58N 29°45' W 095°07'0 0.0
2017-Dec-14 00:34N 29°45' W 095°07'0 0.0
2017-Dec-14 00:28N 29°45' W 095°07'0 0.0
2017-Dec-13 23:08N 29°45' W 095°07'1 0.8
2017-Dec-13 22:27N 29°45' W 095°06'2 3.2
2017-Dec-13 21:57N 29°46' W 095°05'3 7.5
2017-Dec-13 21:30N 29°44' W 095°02'2 1.1
2017-Dec-13 20:07N 29°42' W 095°01'0 0.0
2017-Dec-13 19:49N 29°42' W 095°01'0 0.0
2017-Dec-13 19:13N 29°42' W 095°01'0 0.0
2017-Dec-13 18:56N 29°42' W 095°01'2 3.4
2017-Dec-13 18:29N 29°44' W 095°01'1 1.0
2017-Dec-13 17:12N 29°42' W 095°01'0 0.7
2017-Dec-13 16:53N 29°42' W 095°01'0 0.0
2017-Dec-13 16:11N 29°42' W 095°01'0 0.0
2017-Dec-13 15:59N 29°42' W 095°01'0 0.0
2017-Dec-13 15:14N 29°42' W 095°01'0 0.0
2017-Dec-13 14:59N 29°42' W 095°01'0 0.0
2017-Dec-13 14:29N 29°42' W 095°01'0 0.0
2017-Dec-13 13:53N 29°42' W 095°01'0 0.0
2017-Dec-13 13:26N 29°42' W 095°01'2 4.2
2017-Dec-13 13:00N 29°41' W 094°59'1 1.1
2017-Dec-13 12:30N 29°41' W 094°60'0 0.7
2017-Dec-13 12:00N 29°41' W 094°59'2 3.9
2017-Dec-13 11:30N 29°39' W 094°58'2 3.8
2017-Dec-13 11:00N 29°41' W 094°59'0 0.0
2017-Dec-13 10:30N 29°41' W 094°59'0 0.0
2017-Dec-13 10:00N 29°41' W 094°59'0 0.0
2017-Dec-13 09:30N 29°41' W 094°59'1 2.3
2017-Dec-13 09:00N 29°41' W 095°00'1 1.8
2017-Dec-13 08:30N 29°41' W 094°59'0 0.0
2017-Dec-13 08:00N 29°41' W 094°59'0 0.0
2017-Dec-13 07:30N 29°41' W 094°59'0 0.0
2017-Dec-13 07:00N 29°41' W 094°59'0 0.0
2017-Dec-13 06:30N 29°41' W 094°59'0 0.0
2017-Dec-13 06:00N 29°41' W 094°59'0 0.0
2017-Dec-13 05:27N 29°41' W 094°59'0 0.0
2017-Dec-13 05:00N 29°41' W 094°59'0 0.0
2017-Dec-13 04:27N 29°41' W 094°59'0 0.0
2017-Dec-13 03:57N 29°41' W 094°59'0 0.0
2017-Dec-13 03:30N 29°41' W 094°59'0 0.0
2017-Dec-13 03:00N 29°41' W 094°59'2 3.9
2017-Dec-13 02:30N 29°42' W 095°01'1 0.9
2017-Dec-13 01:43N 29°43' W 095°01'1 4.2
2017-Dec-13 01:31N 29°42' W 095°01'0 0.4
2017-Dec-13 00:59N 29°42' W 095°01'0 0.0
2017-Dec-13 00:20N 29°42' W 095°01'0 0.0
2017-Dec-12 23:59N 29°42' W 095°01'1 0.8
2017-Dec-12 22:46N 29°43' W 095°01'1 3.7
2017-Dec-12 22:30N 29°42' W 095°01'0 0.0
2017-Dec-12 22:00N 29°42' W 095°01'0 0.0
2017-Dec-12 21:27N 29°42' W 095°01'0 0.0
2017-Dec-12 20:57N 29°42' W 095°01'0 0.0
2017-Dec-12 20:30N 29°42' W 095°01'0 0.0
2017-Dec-12 19:57N 29°42' W 095°01'0 0.0
2017-Dec-12 19:30N 29°42' W 095°01'0 0.5
2017-Dec-12 19:00N 29°42' W 095°01'2 3.2
2017-Dec-12 18:31N 29°41' W 094°60'1 1.2
2017-Dec-12 18:00N 29°41' W 095°01'1 2.1
2017-Dec-12 17:30N 29°42' W 095°00'1 1.6
2017-Dec-12 16:58N 29°42' W 095°01'0 0.0
2017-Dec-12 16:28N 29°42' W 095°01'0 0.0
2017-Dec-12 15:58N 29°42' W 095°01'2 4.2
2017-Dec-12 15:23N 29°44' W 095°03'0 0.5
2017-Dec-12 15:00N 29°44' W 095°03'0 0.8
2017-Dec-12 14:30N 29°44' W 095°03'2 1.6
2017-Dec-12 12:59N 29°45' W 095°06'1 0.2
2017-Dec-12 10:30N 29°44' W 095°07'3 5.3
2017-Dec-12 10:00N 29°45' W 095°04'2 2.2
2017-Dec-12 08:57N 29°44' W 095°01'1 1.9
2017-Dec-12 08:31N 29°43' W 095°01'1 1.2
2017-Dec-12 08:01N 29°42' W 095°01'1 2.2
2017-Dec-12 07:28N 29°43' W 095°01'2 3.6
2017-Dec-12 07:00N 29°44' W 095°03'0 0.7
2017-Dec-12 06:29N 29°44' W 095°03'2 3.8
2017-Dec-12 05:54N 29°42' W 095°01'0 0.0
2017-Dec-12 05:24N 29°42' W 095°01'0 0.0
2017-Dec-12 05:00N 29°42' W 095°01'0 0.0
2017-Dec-12 04:24N 29°42' W 095°01'0 0.0
2017-Dec-12 04:00N 29°42' W 095°01'0 0.0
2017-Dec-12 03:24N 29°42' W 095°01'0 0.0
2017-Dec-12 03:00N 29°42' W 095°01'1 2.5
2017-Dec-12 02:29N 29°42' W 094°60'1 2.2
2017-Dec-12 02:00N 29°41' W 095°01'0 0.0
2017-Dec-12 01:30N 29°41' W 095°01'1 3.0
2017-Dec-12 01:00N 29°41' W 094°59'0 0.6
2017-Dec-12 00:30N 29°41' W 094°59'0 0.3
2017-Dec-12 00:00N 29°41' W 094°59'3 1.9
2017-Dec-11 22:17N 29°44' W 095°01'0 0.5
2017-Dec-11 21:56N 29°43' W 095°01'1 2.7
2017-Dec-11 21:30N 29°42' W 095°01'0 0.3
2017-Dec-11 21:00N 29°42' W 095°01'0 0.0
2017-Dec-11 20:30N 29°42' W 095°01'1 1.3
2017-Dec-11 19:28N 29°44' W 095°01'2 4.5
2017-Dec-11 18:59N 29°42' W 094°60'4 7.9
2017-Dec-11 18:30N 29°38' W 094°58'3 5.3
2017-Dec-11 18:00N 29°37' W 095°00'1 1.4
2017-Dec-11 17:31N 29°37' W 095°01'0 0.0
2017-Dec-11 16:59N 29°37' W 095°01'0 0.0
2017-Dec-11 16:29N 29°37' W 095°01'0 0.0
2017-Dec-11 15:59N 29°37' W 095°01'0 0.0
2017-Dec-11 15:29N 29°37' W 095°01'0 0.0
2017-Dec-11 14:59N 29°37' W 095°01'0 0.0
2017-Dec-11 14:29N 29°37' W 095°01'0 0.0
2017-Dec-11 14:01N 29°37' W 095°01'0 0.0
2017-Dec-11 13:31N 29°37' W 095°01'0 0.0
2017-Dec-11 13:01N 29°37' W 095°01'0 0.0
2017-Dec-11 12:31N 29°37' W 095°01'0 0.0
2017-Dec-11 12:01N 29°37' W 095°01'0 0.0
2017-Dec-11 11:30N 29°37' W 095°01'0 0.0
2017-Dec-11 11:00N 29°37' W 095°01'0 0.0
2017-Dec-11 10:31N 29°37' W 095°01'0 0.6
2017-Dec-11 10:01N 29°37' W 095°01'0 0.6
2017-Dec-11 09:29N 29°37' W 095°01'0 0.0
2017-Dec-11 08:59N 29°37' W 095°01'0 0.0
2017-Dec-11 08:29N 29°37' W 095°01'0 0.0
2017-Dec-11 07:59N 29°37' W 095°01'0 0.0
2017-Dec-11 07:29N 29°37' W 095°01'0 0.0
2017-Dec-11 06:59N 29°37' W 095°01'0 0.0
2017-Dec-11 06:29N 29°37' W 095°01'0 0.0
2017-Dec-11 05:59N 29°37' W 095°01'0 0.0
2017-Dec-11 05:29N 29°37' W 095°01'0 0.0
2017-Dec-11 04:59N 29°37' W 095°01'0 0.0
2017-Dec-11 04:29N 29°37' W 095°01'0 0.0
2017-Dec-11 03:59N 29°37' W 095°01'0 0.0
2017-Dec-11 03:29N 29°37' W 095°01'0 0.0
2017-Dec-11 02:59N 29°37' W 095°01'0 0.0
2017-Dec-11 02:29N 29°37' W 095°01'0 0.0
2017-Dec-11 01:59N 29°37' W 095°01'0 0.0
2017-Dec-11 01:29N 29°37' W 095°01'0 0.0
2017-Dec-11 00:59N 29°37' W 095°01'0 0.0
2017-Dec-11 00:29N 29°37' W 095°01'0 0.0
2017-Dec-10 23:59N 29°37' W 095°01'0 0.0
2017-Dec-10 23:30N 29°37' W 095°01'1 1.1
2017-Dec-10 23:00N 29°37' W 095°01'0 0.5
2017-Dec-10 22:30N 29°37' W 095°01'0 0.7
2017-Dec-10 22:00N 29°37' W 095°00'0 0.0
2017-Dec-10 21:30N 29°37' W 095°00'0 0.0
2017-Dec-10 21:00N 29°37' W 095°00'0 0.0
2017-Dec-10 20:30N 29°37' W 095°00'0 0.0
2017-Dec-10 20:00N 29°37' W 095°00'0 0.0
2017-Dec-10 19:31N 29°37' W 095°00'0 0.7
2017-Dec-10 19:00N 29°37' W 095°01'0 0.0
2017-Dec-10 18:31N 29°37' W 095°01'3 6.2
2017-Dec-10 18:00N 29°36' W 094°57'2 4.4
2017-Dec-10 17:29N 29°34' W 094°56'4 8.4
2017-Dec-10 17:00N 29°37' W 094°59'1 1.4
2017-Dec-10 16:28N 29°37' W 095°00'0 0.0
2017-Dec-10 15:58N 29°37' W 095°00'0 0.0
2017-Dec-10 15:28N 29°37' W 095°00'0 0.0
2017-Dec-10 14:58N 29°37' W 095°00'0 0.0
2017-Dec-10 14:28N 29°37' W 095°00'0 0.0
2017-Dec-10 13:58N 29°37' W 095°00'0 0.4
2017-Dec-10 13:30N 29°37' W 095°00'0 0.0
2017-Dec-10 13:00N 29°37' W 095°00'0 0.4
2017-Dec-10 12:30N 29°37' W 095°00'0 0.0
2017-Dec-10 12:00N 29°37' W 095°00'0 0.0
2017-Dec-10 11:30N 29°37' W 095°00'0 0.0
2017-Dec-10 11:00N 29°37' W 095°00'0 0.0
2017-Dec-10 10:30N 29°37' W 095°00'0 0.0
2017-Dec-10 10:00N 29°37' W 095°00'0 0.0
2017-Dec-10 09:30N 29°37' W 095°00'1 1.7
2017-Dec-10 09:00N 29°37' W 094°59'4 7.6
2017-Dec-10 08:30N 29°41' W 094°59'5 9.2
2017-Dec-10 07:58N 29°44' W 095°03'3 6.3
2017-Dec-10 07:30N 29°45' W 095°06'4 7.2
2017-Dec-10 07:00N 29°45' W 095°10'0 0.0
2017-Dec-10 04:11N 29°45' W 095°10'1 5.7
2017-Dec-10 04:00N 29°44' W 095°09'3 1.3
2017-Dec-10 01:48N 29°45' W 095°06'0 0.1
2017-Dec-09 20:48N 29°45' W 095°06'0 1.2
2017-Dec-09 20:30N 29°45' W 095°06'1 0.9
2017-Dec-09 19:50N 29°45' W 095°06'1 4.3
2017-Dec-09 19:30N 29°45' W 095°04'3 5.4
2017-Dec-09 19:00N 29°44' W 095°01'3 5.5
2017-Dec-09 18:31N 29°42' W 094°59'1 1.1
2017-Dec-09 18:00N 29°41' W 094°59'2 4.0
2017-Dec-09 17:28N 29°42' W 095°01'0 0.0
2017-Dec-09 15:27N 29°42' W 095°01'0 0.0
2017-Dec-09 14:57N 29°42' W 095°01'0 0.0
2017-Dec-09 14:31N 29°42' W 095°01'3 5.3
2017-Dec-09 14:01N 29°41' W 094°59'4 7.6
2017-Dec-09 13:30N 29°37' W 094°59'2 4.7
2017-Dec-09 13:00N 29°37' W 095°01'0 0.8
2017-Dec-09 12:31N 29°37' W 095°01'0 0.0
2017-Dec-09 11:57N 29°37' W 095°01'0 0.0
2017-Dec-09 11:30N 29°37' W 095°01'1 1.9
2017-Dec-09 11:00N 29°37' W 095°00'0 0.3
2017-Dec-09 10:30N 29°37' W 094°60'4 7.4
2017-Dec-09 09:58N 29°35' W 094°56'1 2.4
2017-Dec-09 09:30N 29°36' W 094°57'510.3
2017-Dec-09 09:00N 29°41' W 094°59'5 8.0
2017-Dec-09 08:27N 29°44' W 095°02'1 1.5
2017-Dec-09 08:00N 29°44' W 095°03'2 2.0
2017-Dec-09 07:10N 29°44' W 095°01'0 0.1
2017-Dec-09 07:00N 29°44' W 095°01'3 6.5
2017-Dec-09 06:30N 29°41' W 094°59'0 0.0
2017-Dec-09 06:00N 29°41' W 094°59'0 0.0
2017-Dec-09 05:30N 29°41' W 094°59'0 0.0
2017-Dec-09 05:00N 29°41' W 094°59'0 0.0
2017-Dec-09 04:30N 29°41' W 094°59'0 0.0
2017-Dec-09 04:00N 29°41' W 094°59'0 0.0
2017-Dec-09 03:30N 29°41' W 094°59'2 3.5
2017-Dec-09 03:00N 29°39' W 094°58'3 6.3
2017-Dec-09 02:30N 29°37' W 095°00'1 1.1
2017-Dec-09 02:00N 29°37' W 095°01'1 2.0
2017-Dec-09 01:30N 29°37' W 094°60'1 2.3
2017-Dec-09 01:00N 29°37' W 095°01'0 0.0
2017-Dec-09 00:30N 29°37' W 095°01'0 0.0
2017-Dec-09 00:00N 29°37' W 095°01'0 0.0
2017-Dec-08 23:30N 29°37' W 095°01'0 0.0
2017-Dec-08 23:00N 29°37' W 095°01'0 0.0
2017-Dec-08 22:30N 29°37' W 095°01'0 0.0
2017-Dec-08 22:00N 29°37' W 095°01'3 6.3
2017-Dec-08 21:30N 29°37' W 094°58'4 7.7
2017-Dec-08 21:01N 29°41' W 094°59'0 0.7
2017-Dec-08 20:31N 29°41' W 094°60'1 2.7
2017-Dec-08 19:59N 29°42' W 095°01'0 0.8
2017-Dec-08 19:22N 29°42' W 095°01'2 5.2
2017-Dec-08 18:54N 29°44' W 095°03'3 0.9
2017-Dec-08 16:06N 29°45' W 095°06'2 6.0
2017-Dec-08 15:49N 29°45' W 095°04'2 1.3
2017-Dec-08 13:59N 29°44' W 095°01'1 2.9
2017-Dec-08 13:30N 29°42' W 095°01'0 0.0
2017-Dec-08 12:54N 29°42' W 095°01'0 0.0
2017-Dec-08 12:24N 29°42' W 095°01'0 0.9
2017-Dec-08 11:59N 29°43' W 095°01'1 2.5
2017-Dec-08 11:30N 29°44' W 095°01'0 0.1
2017-Dec-08 09:54N 29°44' W 095°01'3 7.4
2017-Dec-08 09:30N 29°41' W 094°59'1 1.3
2017-Dec-08 08:59N 29°41' W 094°60'0 0.0
2017-Dec-08 08:23N 29°41' W 094°60'0 0.0
2017-Dec-08 07:56N 29°41' W 094°60'2 5.7
2017-Dec-08 07:30N 29°39' W 094°58'2 4.9
2017-Dec-08 07:00N 29°41' W 094°60'0 0.7
2017-Dec-08 06:30N 29°41' W 094°60'1 1.9
2017-Dec-08 06:00N 29°42' W 094°60'1 2.5
2017-Dec-08 05:30N 29°42' W 095°01'0 0.0
2017-Dec-08 05:00N 29°42' W 095°01'0 0.0
2017-Dec-08 04:27N 29°42' W 095°01'1 2.6
2017-Dec-08 03:58N 29°42' W 094°60'1 2.1
2017-Dec-08 03:30N 29°41' W 094°60'0 0.3
2017-Dec-08 02:31N 29°41' W 095°00'0 1.7
2017-Dec-08 02:30N 29°41' W 095°00'1 2.1
2017-Dec-08 02:00N 29°42' W 094°60'1 2.5
2017-Dec-08 01:27N 29°42' W 095°01'0 0.0
2017-Dec-08 01:00N 29°42' W 095°01'0 0.0
2017-Dec-08 00:30N 29°42' W 095°01'0 0.1
2017-Dec-07 23:18N 29°42' W 095°01'0 0.3
2017-Dec-07 22:54N 29°42' W 095°01'0 0.0
2017-Dec-07 22:30N 29°42' W 095°01'0 0.0
2017-Dec-07 22:00N 29°42' W 095°01'0 0.0
2017-Dec-07 21:27N 29°42' W 095°01'0 0.0
2017-Dec-07 21:00N 29°42' W 095°01'0 0.0
2017-Dec-07 20:09N 29°42' W 095°01'0 0.0
2017-Dec-07 19:42N 29°42' W 095°01'0 0.0
2017-Dec-07 19:30N 29°42' W 095°01'2 3.9
2017-Dec-07 19:00N 29°41' W 094°59'0 0.2
2017-Dec-07 18:30N 29°41' W 094°59'1 1.5
2017-Dec-07 18:01N 29°41' W 094°59'1 1.9
2017-Dec-07 17:31N 29°41' W 094°59'2 2.9
2017-Dec-07 16:54N 29°42' W 095°01'0 0.0
2017-Dec-07 16:30N 29°42' W 095°01'0 0.0
2017-Dec-07 16:00N 29°42' W 095°01'0 0.0
2017-Dec-07 15:30N 29°42' W 095°01'2 3.1
2017-Dec-07 15:01N 29°42' W 094°59'1 1.7
2017-Dec-07 14:29N 29°41' W 094°60'1 1.0
2017-Dec-07 14:00N 29°41' W 094°59'0 0.0
2017-Dec-07 13:31N 29°41' W 094°59'3 6.2
2017-Dec-07 13:01N 29°38' W 094°58'2 4.9
2017-Dec-07 12:31N 29°37' W 095°00'0 0.1
2017-Dec-07 12:00N 29°37' W 095°00'1 2.0
2017-Dec-07 11:30N 29°37' W 095°01'2 3.9
2017-Dec-07 11:00N 29°37' W 094°59'3 6.6
2017-Dec-07 10:31N 29°35' W 094°56'2 2.9
2017-Dec-07 09:51N 29°36' W 094°57'3 8.9
2017-Dec-07 09:30N 29°37' W 095°01'0 0.6
2017-Dec-07 09:01N 29°37' W 095°01'0 0.0
2017-Dec-07 08:31N 29°37' W 095°01'0 0.0
2017-Dec-07 08:01N 29°37' W 095°01'0 0.0
2017-Dec-07 07:31N 29°37' W 095°01'0 0.0
2017-Dec-07 07:01N 29°37' W 095°01'0 0.0
2017-Dec-07 06:31N 29°37' W 095°01'0 0.0
2017-Dec-07 06:01N 29°37' W 095°01'0 0.0
2017-Dec-07 05:30N 29°37' W 095°01'0 0.0
2017-Dec-07 05:01N 29°37' W 095°01'0 0.0
2017-Dec-07 04:31N 29°37' W 095°01'0 0.0
2017-Dec-07 04:01N 29°37' W 095°01'0 0.0
2017-Dec-07 03:31N 29°37' W 095°01'  
Track history (hours):
 
Tides and Currents Weather Stations Pressure Air Temp Water Temp Dewpoint Dewpoint Depression Visibility Wind Speed Wind Dir Waves Ship Positions

Hunter M

Owner: G & H Towing Company, Galveston, TX. More information available from US FCC via Universal Licensing System and Coast Guard Vessel Documentation Center.

Last reported at 2017-Dec-17 03:30 UTC. Time now 2017-Dec-17 03:57 UTC.
Position N 29°37' W 095°00'.

Length 30 m; draft 6.2 m.

Type: Tug. MMSI: 367402050.

Date/timePositionNaut miles runAvg speedWind from/ knotsBaromVisibWave heightAir tempDewpointWater temp
2017-Dec-17 03:30N 29°37' W 095°00'3 5.6
2017-Dec-17 03:00N 29°39' W 094°58'3 5.1
2017-Dec-17 02:30N 29°41' W 094°59'1 1.1
2017-Dec-17 02:00N 29°41' W 094°60'2 3.3
2017-Dec-17 01:28N 29°42' W 095°01'0 0.0
2017-Dec-16 23:32N 29°42' W 095°01'0 2.6
2017-Dec-16 23:30N 29°42' W 095°01'4 0.7
2017-Dec-16 16:56N 29°46' W 095°04'3 6.3
2017-Dec-16 16:24N 29°44' W 095°01'0 0.0
2017-Dec-16 16:00N 29°44' W 095°01'0 0.0
2017-Dec-16 15:28N 29°44' W 095°01'1 1.5
2017-Dec-16 14:43N 29°43' W 095°01'0 1.4
2017-Dec-16 14:26N 29°42' W 095°01'0 0.0
2017-Dec-16 14:00N 29°42' W 095°01'2 4.6
2017-Dec-16 13:30N 29°41' W 094°59'1 2.2
2017-Dec-16 13:00N 29°41' W 095°00'0 0.1
2017-Dec-16 12:25N 29°41' W 095°00'0 0.0
2017-Dec-16 12:01N 29°41' W 095°00'0 0.4
2017-Dec-16 11:29N 29°41' W 094°60'0 0.7
2017-Dec-16 11:00N 29°41' W 094°60'1 2.3
2017-Dec-16 10:30N 29°40' W 094°59'1 2.0
2017-Dec-16 09:58N 29°41' W 094°60'0 0.0
2017-Dec-16 09:28N 29°41' W 094°60'0 0.0
2017-Dec-16 08:58N 29°41' W 094°60'0 0.0
2017-Dec-16 08:28N 29°41' W 094°60'0 0.0
2017-Dec-16 07:55N 29°41' W 094°60'0 0.0
2017-Dec-16 07:28N 29°41' W 094°60'0 0.0
2017-Dec-16 06:58N 29°41' W 094°60'0 0.0
2017-Dec-16 06:28N 29°41' W 094°60'0 0.0
2017-Dec-16 06:00N 29°41' W 094°60'4 7.8
2017-Dec-16 05:30N 29°37' W 094°58'4 7.1
2017-Dec-16 05:01N 29°37' W 095°02'0 0.0
2017-Dec-16 04:31N 29°37' W 095°02'1 1.7
2017-Dec-16 04:01N 29°37' W 095°01'0 0.0
2017-Dec-16 03:30N 29°37' W 095°01'0 0.0
2017-Dec-16 03:00N 29°37' W 095°01'0 0.0
2017-Dec-16 02:30N 29°37' W 095°01'1 1.4
2017-Dec-16 02:00N 29°37' W 095°01'1 2.2
2017-Dec-16 01:30N 29°37' W 095°00'1 2.8
2017-Dec-16 01:00N 29°37' W 094°59'4 8.1
2017-Dec-16 00:30N 29°41' W 094°59'1 2.8
2017-Dec-16 00:01N 29°41' W 095°01'1 1.5
2017-Dec-15 23:30N 29°41' W 094°60'2 4.1
2017-Dec-15 23:00N 29°39' W 094°58'2 2.8
2017-Dec-15 22:19N 29°41' W 094°59'0 0.3
2017-Dec-15 22:00N 29°41' W 094°59'1 1.0
2017-Dec-15 21:29N 29°41' W 095°00'1 1.0
2017-Dec-15 21:00N 29°41' W 094°59'0 0.0
2017-Dec-15 20:30N 29°41' W 094°59'0 0.0
2017-Dec-15 20:00N 29°41' W 094°59'0 0.0
2017-Dec-15 19:30N 29°41' W 094°59'3 2.3
2017-Dec-15 18:08N 29°44' W 095°01'1 2.5
2017-Dec-15 17:55N 29°43' W 095°01'2 4.7
2017-Dec-15 17:30N 29°42' W 094°60'1 2.3
2017-Dec-15 17:01N 29°41' W 094°59'2 4.2
2017-Dec-15 16:26N 29°42' W 095°01'0 0.0
2017-Dec-15 15:56N 29°42' W 095°01'0 0.0
2017-Dec-15 15:26N 29°42' W 095°01'0 0.0
2017-Dec-15 14:44N 29°42' W 095°01'0 0.0
2017-Dec-15 14:30N 29°42' W 095°01'2 3.7
2017-Dec-15 13:58N 29°41' W 094°59'0 0.0
2017-Dec-15 13:28N 29°41' W 094°59'0 0.0
2017-Dec-15 12:58N 29°41' W 094°59'0 0.0
2017-Dec-15 12:28N 29°41' W 094°59'0 0.0
2017-Dec-15 11:58N 29°41' W 094°59'0 0.0
2017-Dec-15 11:28N 29°41' W 094°59'0 0.0
2017-Dec-15 10:58N 29°41' W 094°59'0 0.0
2017-Dec-15 10:28N 29°41' W 094°59'0 0.0
2017-Dec-15 09:58N 29°41' W 094°59'0 0.0
2017-Dec-15 09:25N 29°41' W 094°59'0 0.0
2017-Dec-15 08:49N 29°41' W 094°59'0 0.0
2017-Dec-15 08:25N 29°41' W 094°59'0 0.0
2017-Dec-15 06:40N 29°41' W 094°59'0 0.0
2017-Dec-15 06:19N 29°41' W 094°59'0 0.6
2017-Dec-15 06:01N 29°41' W 094°59'1 1.8
2017-Dec-15 05:31N 29°41' W 095°00'2 3.6
2017-Dec-15 05:00N 29°40' W 094°58'3 6.6
2017-Dec-15 04:30N 29°37' W 094°60'0 0.9
2017-Dec-15 04:00N 29°37' W 095°00'0 0.0
2017-Dec-15 02:24N 29°37' W 095°00'0 0.0
2017-Dec-15 01:00N 29°37' W 095°00'0 0.0
2017-Dec-15 00:30N 29°37' W 095°00'4 0.7
2017-Dec-14 18:29N 29°41' W 094°59'1 1.1
2017-Dec-14 18:00N 29°41' W 094°59'0 0.8
2017-Dec-14 17:30N 29°41' W 094°59'2 3.5
2017-Dec-14 16:56N 29°42' W 095°01'0 0.0
2017-Dec-14 15:50N 29°42' W 095°01'1 1.3
2017-Dec-14 15:01N 29°42' W 094°60'3 5.5
2017-Dec-14 14:24N 29°44' W 095°03'3 5.8
2017-Dec-14 13:57N 29°46' W 095°05'2 1.5
2017-Dec-14 12:42N 29°44' W 095°07'0 0.0
2017-Dec-14 05:42N 29°45' W 095°07'0 0.0
2017-Dec-14 05:12N 29°45' W 095°07'0 0.0
2017-Dec-14 05:00N 29°45' W 095°07'0 0.0
2017-Dec-14 03:27N 29°44' W 095°07'0 0.1
2017-Dec-14 02:09N 29°45' W 095°06'0 0.9
2017-Dec-14 01:58N 29°45' W 095°07'0 0.0
2017-Dec-14 00:34N 29°45' W 095°07'0 0.0
2017-Dec-14 00:28N 29°45' W 095°07'0 0.0
2017-Dec-13 23:08N 29°45' W 095°07'1 0.8
2017-Dec-13 22:27N 29°45' W 095°06'2 3.2
2017-Dec-13 21:57N 29°46' W 095°05'3 7.5
2017-Dec-13 21:30N 29°44' W 095°02'2 1.1
2017-Dec-13 20:07N 29°42' W 095°01'0 0.0
2017-Dec-13 19:49N 29°42' W 095°01'0 0.0
2017-Dec-13 19:13N 29°42' W 095°01'0 0.0
2017-Dec-13 18:56N 29°42' W 095°01'2 3.4
2017-Dec-13 18:29N 29°44' W 095°01'1 1.0
2017-Dec-13 17:12N 29°42' W 095°01'0 0.7
2017-Dec-13 16:53N 29°42' W 095°01'0 0.0
2017-Dec-13 16:11N 29°42' W 095°01'0 0.0
2017-Dec-13 15:59N 29°42' W 095°01'0 0.0
2017-Dec-13 15:14N 29°42' W 095°01'0 0.0
2017-Dec-13 14:59N 29°42' W 095°01'0 0.0
2017-Dec-13 14:29N 29°42' W 095°01'0 0.0
2017-Dec-13 13:53N 29°42' W 095°01'0 0.0
2017-Dec-13 13:26N 29°42' W 095°01'2 4.2
2017-Dec-13 13:00N 29°41' W 094°59'1 1.1
2017-Dec-13 12:30N 29°41' W 094°60'0 0.7
2017-Dec-13 12:00N 29°41' W 094°59'2 3.9
2017-Dec-13 11:30N 29°39' W 094°58'2 3.8
2017-Dec-13 11:00N 29°41' W 094°59'0 0.0
2017-Dec-13 10:30N 29°41' W 094°59'0 0.0
2017-Dec-13 10:00N 29°41' W 094°59'0 0.0
2017-Dec-13 09:30N 29°41' W 094°59'1 2.3
2017-Dec-13 09:00N 29°41' W 095°00'1 1.8
2017-Dec-13 08:30N 29°41' W 094°59'0 0.0
2017-Dec-13 08:00N 29°41' W 094°59'0 0.0
2017-Dec-13 07:30N 29°41' W 094°59'0 0.0
2017-Dec-13 07:00N 29°41' W 094°59'0 0.0
2017-Dec-13 06:30N 29°41' W 094°59'0 0.0
2017-Dec-13 06:00N 29°41' W 094°59'0 0.0
2017-Dec-13 05:27N 29°41' W 094°59'0 0.0
2017-Dec-13 05:00N 29°41' W 094°59'0 0.0
2017-Dec-13 04:27N 29°41' W 094°59'0 0.0
2017-Dec-13 03:57N 29°41' W 094°59'0 0.0
2017-Dec-13 03:30N 29°41' W 094°59'0 0.0
2017-Dec-13 03:00N 29°41' W 094°59'2 3.9
2017-Dec-13 02:30N 29°42' W 095°01'1 0.9
2017-Dec-13 01:43N 29°43' W 095°01'1 4.2
2017-Dec-13 01:31N 29°42' W 095°01'0 0.4
2017-Dec-13 00:59N 29°42' W 095°01'0 0.0
2017-Dec-13 00:20N 29°42' W 095°01'0 0.0
2017-Dec-12 23:59N 29°42' W 095°01'1 0.8
2017-Dec-12 22:46N 29°43' W 095°01'1 3.7
2017-Dec-12 22:30N 29°42' W 095°01'0 0.0
2017-Dec-12 22:00N 29°42' W 095°01'0 0.0
2017-Dec-12 21:27N 29°42' W 095°01'0 0.0
2017-Dec-12 20:57N 29°42' W 095°01'0 0.0
2017-Dec-12 20:30N 29°42' W 095°01'0 0.0
2017-Dec-12 19:57N 29°42' W 095°01'0 0.0
2017-Dec-12 19:30N 29°42' W 095°01'0 0.5
2017-Dec-12 19:00N 29°42' W 095°01'2 3.2
2017-Dec-12 18:31N 29°41' W 094°60'1 1.2
2017-Dec-12 18:00N 29°41' W 095°01'1 2.1
2017-Dec-12 17:30N 29°42' W 095°00'1 1.6
2017-Dec-12 16:58N 29°42' W 095°01'0 0.0
2017-Dec-12 16:28N 29°42' W 095°01'0 0.0
2017-Dec-12 15:58N 29°42' W 095°01'2 4.2
2017-Dec-12 15:23N 29°44' W 095°03'0 0.5
2017-Dec-12 15:00N 29°44' W 095°03'0 0.8
2017-Dec-12 14:30N 29°44' W 095°03'2 1.6
2017-Dec-12 12:59N 29°45' W 095°06'1 0.2
2017-Dec-12 10:30N 29°44' W 095°07'3 5.3
2017-Dec-12 10:00N 29°45' W 095°04'2 2.2
2017-Dec-12 08:57N 29°44' W 095°01'1 1.9
2017-Dec-12 08:31N 29°43' W 095°01'1 1.2
2017-Dec-12 08:01N 29°42' W 095°01'1 2.2
2017-Dec-12 07:28N 29°43' W 095°01'2 3.6
2017-Dec-12 07:00N 29°44' W 095°03'0 0.7
2017-Dec-12 06:29N 29°44' W 095°03'2 3.8
2017-Dec-12 05:54N 29°42' W 095°01'0 0.0
2017-Dec-12 05:24N 29°42' W 095°01'0 0.0
2017-Dec-12 05:00N 29°42' W 095°01'0 0.0
2017-Dec-12 04:24N 29°42' W 095°01'0 0.0
2017-Dec-12 04:00N 29°42' W 095°01'0 0.0
2017-Dec-12 03:24N 29°42' W 095°01'0 0.0
2017-Dec-12 03:00N 29°42' W 095°01'1 2.5
2017-Dec-12 02:29N 29°42' W 094°60'1 2.2
2017-Dec-12 02:00N 29°41' W 095°01'0 0.0
2017-Dec-12 01:30N 29°41' W 095°01'1 3.0
2017-Dec-12 01:00N 29°41' W 094°59'0 0.6
2017-Dec-12 00:30N 29°41' W 094°59'0 0.3
2017-Dec-12 00:00N 29°41' W 094°59'3 1.9
2017-Dec-11 22:17N 29°44' W 095°01'0 0.5
2017-Dec-11 21:56N 29°43' W 095°01'1 2.7
2017-Dec-11 21:30N 29°42' W 095°01'0 0.3
2017-Dec-11 21:00N 29°42' W 095°01'0 0.0
2017-Dec-11 20:30N 29°42' W 095°01'1 1.3
2017-Dec-11 19:28N 29°44' W 095°01'2 4.5
2017-Dec-11 18:59N 29°42' W 094°60'4 7.9
2017-Dec-11 18:30N 29°38' W 094°58'3 5.3
2017-Dec-11 18:00N 29°37' W 095°00'1 1.4
2017-Dec-11 17:31N 29°37' W 095°01'0 0.0
2017-Dec-11 16:59N 29°37' W 095°01'0 0.0
2017-Dec-11 16:29N 29°37' W 095°01'0 0.0
2017-Dec-11 15:59N 29°37' W 095°01'0 0.0
2017-Dec-11 15:29N 29°37' W 095°01'0 0.0
2017-Dec-11 14:59N 29°37' W 095°01'0 0.0
2017-Dec-11 14:29N 29°37' W 095°01'0 0.0
2017-Dec-11 14:01N 29°37' W 095°01'0 0.0
2017-Dec-11 13:31N 29°37' W 095°01'0 0.0
2017-Dec-11 13:01N 29°37' W 095°01'0 0.0
2017-Dec-11 12:31N 29°37' W 095°01'0 0.0
2017-Dec-11 12:01N 29°37' W 095°01'0 0.0
2017-Dec-11 11:30N 29°37' W 095°01'0 0.0
2017-Dec-11 11:00N 29°37' W 095°01'0 0.0
2017-Dec-11 10:31N 29°37' W 095°01'0 0.6
2017-Dec-11 10:01N 29°37' W 095°01'0 0.6
2017-Dec-11 09:29N 29°37' W 095°01'0 0.0
2017-Dec-11 08:59N 29°37' W 095°01'0 0.0
2017-Dec-11 08:29N 29°37' W 095°01'0 0.0
2017-Dec-11 07:59N 29°37' W 095°01'0 0.0
2017-Dec-11 07:29N 29°37' W 095°01'0 0.0
2017-Dec-11 06:59N 29°37' W 095°01'0 0.0
2017-Dec-11 06:29N 29°37' W 095°01'0 0.0
2017-Dec-11 05:59N 29°37' W 095°01'0 0.0
2017-Dec-11 05:29N 29°37' W 095°01'0 0.0
2017-Dec-11 04:59N 29°37' W 095°01'0 0.0
2017-Dec-11 04:29N 29°37' W 095°01'0 0.0
2017-Dec-11 03:59N 29°37' W 095°01'0 0.0
2017-Dec-11 03:29N 29°37' W 095°01'0 0.0
2017-Dec-11 02:59N 29°37' W 095°01'0 0.0
2017-Dec-11 02:29N 29°37' W 095°01'0 0.0
2017-Dec-11 01:59N 29°37' W 095°01'0 0.0
2017-Dec-11 01:29N 29°37' W 095°01'0 0.0
2017-Dec-11 00:59N 29°37' W 095°01'0 0.0
2017-Dec-11 00:29N 29°37' W 095°01'0 0.0
2017-Dec-10 23:59N 29°37' W 095°01'0 0.0
2017-Dec-10 23:30N 29°37' W 095°01'1 1.1
2017-Dec-10 23:00N 29°37' W 095°01'0 0.5
2017-Dec-10 22:30N 29°37' W 095°01'0 0.7
2017-Dec-10 22:00N 29°37' W 095°00'0 0.0
2017-Dec-10 21:30N 29°37' W 095°00'0 0.0
2017-Dec-10 21:00N 29°37' W 095°00'0 0.0
2017-Dec-10 20:30N 29°37' W 095°00'0 0.0
2017-Dec-10 20:00N 29°37' W 095°00'0 0.0
2017-Dec-10 19:31N 29°37' W 095°00'0 0.7
2017-Dec-10 19:00N 29°37' W 095°01'0 0.0
2017-Dec-10 18:31N 29°37' W 095°01'3 6.2
2017-Dec-10 18:00N 29°36' W 094°57'2 4.4
2017-Dec-10 17:29N 29°34' W 094°56'4 8.4
2017-Dec-10 17:00N 29°37' W 094°59'1 1.4
2017-Dec-10 16:28N 29°37' W 095°00'0 0.0
2017-Dec-10 15:58N 29°37' W 095°00'0 0.0
2017-Dec-10 15:28N 29°37' W 095°00'0 0.0
2017-Dec-10 14:58N 29°37' W 095°00'0 0.0
2017-Dec-10 14:28N 29°37' W 095°00'0 0.0
2017-Dec-10 13:58N 29°37' W 095°00'0 0.4
2017-Dec-10 13:30N 29°37' W 095°00'0 0.0
2017-Dec-10 13:00N 29°37' W 095°00'0 0.4
2017-Dec-10 12:30N 29°37' W 095°00'0 0.0
2017-Dec-10 12:00N 29°37' W 095°00'0 0.0
2017-Dec-10 11:30N 29°37' W 095°00'0 0.0
2017-Dec-10 11:00N 29°37' W 095°00'0 0.0
2017-Dec-10 10:30N 29°37' W 095°00'0 0.0
2017-Dec-10 10:00N 29°37' W 095°00'0 0.0
2017-Dec-10 09:30N 29°37' W 095°00'1 1.7
2017-Dec-10 09:00N 29°37' W 094°59'4 7.6
2017-Dec-10 08:30N 29°41' W 094°59'5 9.2
2017-Dec-10 07:58N 29°44' W 095°03'3 6.3
2017-Dec-10 07:30N 29°45' W 095°06'4 7.2
2017-Dec-10 07:00N 29°45' W 095°10'0 0.0
2017-Dec-10 04:11N 29°45' W 095°10'1 5.7
2017-Dec-10 04:00N 29°44' W 095°09'3 1.3
2017-Dec-10 01:48N 29°45' W 095°06'0 0.1
2017-Dec-09 20:48N 29°45' W 095°06'0 1.2
2017-Dec-09 20:30N 29°45' W 095°06'1 0.9
2017-Dec-09 19:50N 29°45' W 095°06'1 4.3
2017-Dec-09 19:30N 29°45' W 095°04'3 5.4
2017-Dec-09 19:00N 29°44' W 095°01'3 5.5
2017-Dec-09 18:31N 29°42' W 094°59'1 1.1
2017-Dec-09 18:00N 29°41' W 094°59'2 4.0
2017-Dec-09 17:28N 29°42' W 095°01'0 0.0
2017-Dec-09 15:27N 29°42' W 095°01'0 0.0
2017-Dec-09 14:57N 29°42' W 095°01'0 0.0
2017-Dec-09 14:31N 29°42' W 095°01'3 5.3
2017-Dec-09 14:01N 29°41' W 094°59'4 7.6
2017-Dec-09 13:30N 29°37' W 094°59'2 4.7
2017-Dec-09 13:00N 29°37' W 095°01'0 0.8
2017-Dec-09 12:31N 29°37' W 095°01'0 0.0
2017-Dec-09 11:57N 29°37' W 095°01'0 0.0
2017-Dec-09 11:30N 29°37' W 095°01'1 1.9
2017-Dec-09 11:00N 29°37' W 095°00'0 0.3
2017-Dec-09 10:30N 29°37' W 094°60'4 7.4
2017-Dec-09 09:58N 29°35' W 094°56'1 2.4
2017-Dec-09 09:30N 29°36' W 094°57'510.3
2017-Dec-09 09:00N 29°41' W 094°59'5 8.0
2017-Dec-09 08:27N 29°44' W 095°02'1 1.5
2017-Dec-09 08:00N 29°44' W 095°03'2 2.0
2017-Dec-09 07:10N 29°44' W 095°01'0 0.1
2017-Dec-09 07:00N 29°44' W 095°01'3 6.5
2017-Dec-09 06:30N 29°41' W 094°59'0 0.0
2017-Dec-09 06:00N 29°41' W 094°59'0 0.0
2017-Dec-09 05:30N 29°41' W 094°59'0 0.0
2017-Dec-09 05:00N 29°41' W 094°59'0 0.0
2017-Dec-09 04:30N 29°41' W 094°59'0 0.0
2017-Dec-09 04:00N 29°41' W 094°59'0 0.0
2017-Dec-09 03:30N 29°41' W 094°59'2 3.5
2017-Dec-09 03:00N 29°39' W 094°58'3 6.3
2017-Dec-09 02:30N 29°37' W 095°00'1 1.1
2017-Dec-09 02:00N 29°37' W 095°01'1 2.0
2017-Dec-09 01:30N 29°37' W 094°60'1 2.3
2017-Dec-09 01:00N 29°37' W 095°01'0 0.0
2017-Dec-09 00:30N 29°37' W 095°01'0 0.0
2017-Dec-09 00:00N 29°37' W 095°01'0 0.0
2017-Dec-08 23:30N 29°37' W 095°01'0 0.0
2017-Dec-08 23:00N 29°37' W 095°01'0 0.0
2017-Dec-08 22:30N 29°37' W 095°01'0 0.0
2017-Dec-08 22:00N 29°37' W 095°01'3 6.3
2017-Dec-08 21:30N 29°37' W 094°58'4 7.7
2017-Dec-08 21:01N 29°41' W 094°59'0 0.7
2017-Dec-08 20:31N 29°41' W 094°60'1 2.7
2017-Dec-08 19:59N 29°42' W 095°01'0 0.8
2017-Dec-08 19:22N 29°42' W 095°01'2 5.2
2017-Dec-08 18:54N 29°44' W 095°03'3 0.9
2017-Dec-08 16:06N 29°45' W 095°06'2 6.0
2017-Dec-08 15:49N 29°45' W 095°04'2 1.3
2017-Dec-08 13:59N 29°44' W 095°01'1 2.9
2017-Dec-08 13:30N 29°42' W 095°01'0 0.0
2017-Dec-08 12:54N 29°42' W 095°01'0 0.0
2017-Dec-08 12:24N 29°42' W 095°01'0 0.9
2017-Dec-08 11:59N 29°43' W 095°01'1 2.5
2017-Dec-08 11:30N 29°44' W 095°01'0 0.1
2017-Dec-08 09:54N 29°44' W 095°01'3 7.4
2017-Dec-08 09:30N 29°41' W 094°59'1 1.3
2017-Dec-08 08:59N 29°41' W 094°60'0 0.0
2017-Dec-08 08:23N 29°41' W 094°60'0 0.0
2017-Dec-08 07:56N 29°41' W 094°60'2 5.7
2017-Dec-08 07:30N 29°39' W 094°58'2 4.9
2017-Dec-08 07:00N 29°41' W 094°60'0 0.7
2017-Dec-08 06:30N 29°41' W 094°60'1 1.9
2017-Dec-08 06:00N 29°42' W 094°60'1 2.5
2017-Dec-08 05:30N 29°42' W 095°01'0 0.0
2017-Dec-08 05:00N 29°42' W 095°01'0 0.0
2017-Dec-08 04:27N 29°42' W 095°01'1 2.6
2017-Dec-08 03:58N 29°42' W 094°60'1 2.1
2017-Dec-08 03:30N 29°41' W 094°60'0 0.3
2017-Dec-08 02:31N 29°41' W 095°00'0 1.7
2017-Dec-08 02:30N 29°41' W 095°00'1 2.1
2017-Dec-08 02:00N 29°42' W 094°60'1 2.5
2017-Dec-08 01:27N 29°42' W 095°01'0 0.0
2017-Dec-08 01:00N 29°42' W 095°01'0 0.0
2017-Dec-08 00:30N 29°42' W 095°01'0 0.1
2017-Dec-07 23:18N 29°42' W 095°01'0 0.3
2017-Dec-07 22:54N 29°42' W 095°01'0 0.0
2017-Dec-07 22:30N 29°42' W 095°01'0 0.0
2017-Dec-07 22:00N 29°42' W 095°01'0 0.0
2017-Dec-07 21:27N 29°42' W 095°01'0 0.0
2017-Dec-07 21:00N 29°42' W 095°01'0 0.0
2017-Dec-07 20:09N 29°42' W 095°01'0 0.0
2017-Dec-07 19:42N 29°42' W 095°01'0 0.0
2017-Dec-07 19:30N 29°42' W 095°01'2 3.9
2017-Dec-07 19:00N 29°41' W 094°59'0 0.2
2017-Dec-07 18:30N 29°41' W 094°59'1 1.5
2017-Dec-07 18:01N 29°41' W 094°59'1 1.9
2017-Dec-07 17:31N 29°41' W 094°59'2 2.9
2017-Dec-07 16:54N 29°42' W 095°01'0 0.0
2017-Dec-07 16:30N 29°42' W 095°01'0 0.0
2017-Dec-07 16:00N 29°42' W 095°01'0 0.0
2017-Dec-07 15:30N 29°42' W 095°01'2 3.1
2017-Dec-07 15:01N 29°42' W 094°59'1 1.7
2017-Dec-07 14:29N 29°41' W 094°60'1 1.0
2017-Dec-07 14:00N 29°41' W 094°59'0 0.0
2017-Dec-07 13:31N 29°41' W 094°59'3 6.2
2017-Dec-07 13:01N 29°38' W 094°58'2 4.9
2017-Dec-07 12:31N 29°37' W 095°00'0 0.1
2017-Dec-07 12:00N 29°37' W 095°00'1 2.0
2017-Dec-07 11:30N 29°37' W 095°01'2 3.9
2017-Dec-07 11:00N 29°37' W 094°59'3 6.6
2017-Dec-07 10:31N 29°35' W 094°56'2 2.9
2017-Dec-07 09:51N 29°36' W 094°57'3 8.9
2017-Dec-07 09:30N 29°37' W 095°01'0 0.6
2017-Dec-07 09:01N 29°37' W 095°01'0 0.0
2017-Dec-07 08:31N 29°37' W 095°01'0 0.0
2017-Dec-07 08:01N 29°37' W 095°01'0 0.0
2017-Dec-07 07:31N 29°37' W 095°01'0 0.0
2017-Dec-07 07:01N 29°37' W 095°01'0 0.0
2017-Dec-07 06:31N 29°37' W 095°01'0 0.0
2017-Dec-07 06:01N 29°37' W 095°01'0 0.0
2017-Dec-07 05:30N 29°37' W 095°01'0 0.0
2017-Dec-07 05:01N 29°37' W 095°01'0 0.0
2017-Dec-07 04:31N 29°37' W 095°01'0 0.0
2017-Dec-07 04:01N 29°37' W 095°01'0 0.0
2017-Dec-07 03:31N 29°37' W 095°01'  

Dump ship's entire track history